Somers, Wisconsin
Current Conditions -  °F | °C
As of 4:53 AM on Monday 20 Oct 2014 (Local Time) from KENW Reporting Station
Broken Clouds Broken Clouds  
Wind Chill: 43°   Ceiling: 10000
Heat Index: 48°   Visibility: 10mi
Dew Point: 43°   Wind: 10mph
Humidity: 83%   Direction: 250°WSW
Pressure: 29.79"   Gusts: NA
Location:  42.64°N, 87.91°W
Report Text: KENW 200953Z AUTO 25009KT 10SM FEW065 BKN100 09/06 A2979 RMK AO2 SLP089 T00890061
Loading
Personal Weather Stations






























Interactive Weather Map
Tropical Storm Tracking
New forecast layout! Learn more

10-Day Weather Forecast

Advertisements
Track Severe Weather on mobile